logo tempoitalia

Diretta Meteo Pierre, Stati Uniti (USA)lunedì 31 agosto ore 00:53

Mappa
Sereno 17 °C Sereno 24 Ore: T.min 17 T.max 31
Ponente Nord-Ovest Km/h 14.8 Punto di rugiada: 13 °C Umidità: 77% Visibilità: 10 Km
Il sole sorge alle: 07:03 Il sole tramonta alle: 20:19
31 Agosto 2026 00:53 tempo osservato: Sereno Sereno 17 77 1011 vento: Nord NO 14.8
30 Agosto 2026 23:53 tempo osservato: Nuvoloso Nuvoloso 19 68 1010 vento: Nord N 18.5
30 Agosto 2026 22:53 tempo osservato: Sereno Sereno 20 59 1009 vento: Nord N 38.8
30 Agosto 2026 21:53 tempo osservato: Sereno Sereno 21 73 1009 vento: Nord N 42.6
30 Agosto 2026 20:53 tempo osservato: Sereno Sereno 24 69 1005 vento: Nord N 5.5
30 Agosto 2026 19:53 tempo osservato: Sereno Sereno 28 54 1005 vento: Nord N 5.5
30 Agosto 2026 18:53 tempo osservato: Sereno Sereno 30 51 1005 vento: Nord N/NE 9.3
30 Agosto 2026 17:53 tempo osservato: Sereno Sereno 30 51 1005 vento: Nord N 14.8
30 Agosto 2026 16:53 tempo osservato: Sereno Sereno 31 48 1005 vento: Nord NO 13
30 Agosto 2026 15:53 tempo osservato: Sereno Sereno 29 54 1005 vento: Nord N/NO 13
30 Agosto 2026 14:53 tempo osservato: Sereno Sereno 30 51 1005 vento: Nord NO 18.5
30 Agosto 2026 13:53 tempo osservato: Sereno Sereno 29 54 1006 vento: Nord NO 20.3
30 Agosto 2026 12:53 tempo osservato: Sereno Sereno 28 58 1006 vento: Nord O/NO 16.7
30 Agosto 2026 11:53 tempo osservato: Sereno Sereno 28 51 1006 vento: Nord O/NO 13
30 Agosto 2026 10:53 tempo osservato: Sereno Sereno 26 54 1006 vento: Nord O/SO 14.8
30 Agosto 2026 09:53 tempo osservato: Sereno Sereno 24 53 1006 vento: Nord O 13
30 Agosto 2026 08:53 tempo osservato: Sereno Sereno 22 68 1006 vento: Nord SO 7.4
30 Agosto 2026 07:53 tempo osservato: Sereno Sereno 18 93 1006 vento: Nord N 0
30 Agosto 2026 06:53 tempo osservato: Sereno Sereno 17 100 1006 vento: Nord N 0
30 Agosto 2026 06:07 tempo osservato: Foschia Foschia 18 100 1005 vento: Nord N/NE 14.8
30 Agosto 2026 06:04 tempo osservato: Foschia Foschia 18 100 1005 vento: Nord N 14.8
30 Agosto 2026 05:53 tempo osservato: Nebbia Nebbia 17 100 1005 vento: Nord N 7.4
30 Agosto 2026 05:50 tempo osservato: Foschia Foschia 18 100 1005 vento: Nord N 5.5
30 Agosto 2026 05:48 tempo osservato: Foschia Foschia 18 100 1005 vento: Nord N 5.5
30 Agosto 2026 05:32 tempo osservato: Foschia Foschia 18 100 1005 vento: Nord N 5.5
30 Agosto 2026 05:23 tempo osservato: Foschia Foschia 18 100 1006 vento: Nord N/NE 7.4
30 Agosto 2026 05:21 tempo osservato: Foschia Foschia 18 100 1006 vento: Nord N 0
30 Agosto 2026 04:53 tempo osservato: Sereno Sereno 19 100 1006 vento: Nord E 13
30 Agosto 2026 03:53 tempo osservato: Sereno Sereno 19 100 1005 vento: Nord E/NE 13
30 Agosto 2026 02:53 tempo osservato: Sereno Sereno 21 94 1006 vento: Nord NE 9.3
30 Agosto 2026 01:53 tempo osservato: Sereno Sereno 23 88 1006 vento: Nord E/SE 9.3